sensor_id;sensor_type;location;lat;lon;timestamp;P1;durP1;ratioP1;P2;durP2;ratioP2
22780;SDS011;11557;50.884;4.322;2023-03-09T00:00:49;34.90;;;21.50;;
22780;SDS011;11557;50.884;4.322;2023-03-09T00:03:14;31.70;;;20.27;;
22780;SDS011;11557;50.884;4.322;2023-03-09T00:05:44;37.72;;;23.00;;
22780;SDS011;11557;50.884;4.322;2023-03-09T00:08:17;37.65;;;23.40;;
22780;SDS011;11557;50.884;4.322;2023-03-09T00:10:43;37.50;;;23.55;;
22780;SDS011;11557;50.884;4.322;2023-03-09T00:13:11;34.92;;;22.00;;
22780;SDS011;11557;50.884;4.322;2023-03-09T00:15:37;39.83;;;23.30;;
22780;SDS011;11557;50.884;4.322;2023-03-09T00:18:02;36.33;;;22.77;;
22780;SDS011;11557;50.884;4.322;2023-03-09T00:20:28;36.90;;;22.33;;
22780;SDS011;11557;50.884;4.322;2023-03-09T00:22:54;36.78;;;22.73;;
22780;SDS011;11557;50.884;4.322;2023-03-09T00:25:20;37.90;;;24.05;;
22780;SDS011;11557;50.884;4.322;2023-03-09T00:27:51;37.17;;;23.13;;
22780;SDS011;11557;50.884;4.322;2023-03-09T00:30:18;38.78;;;24.25;;
22780;SDS011;11557;50.884;4.322;2023-03-09T00:32:44;40.28;;;25.35;;
22780;SDS011;11557;50.884;4.322;2023-03-09T00:35:11;36.08;;;22.70;;
22780;SDS011;11557;50.884;4.322;2023-03-09T00:37:36;38.17;;;24.23;;
22780;SDS011;11557;50.884;4.322;2023-03-09T00:40:03;35.65;;;23.30;;
22780;SDS011;11557;50.884;4.322;2023-03-09T00:42:35;40.70;;;24.73;;
22780;SDS011;11557;50.884;4.322;2023-03-09T00:45:02;43.28;;;25.27;;
22780;SDS011;11557;50.884;4.322;2023-03-09T00:47:29;43.15;;;26.65;;
22780;SDS011;11557;50.884;4.322;2023-03-09T00:49:54;41.85;;;24.75;;
22780;SDS011;11557;50.884;4.322;2023-03-09T00:52:20;44.33;;;25.73;;
22780;SDS011;11557;50.884;4.322;2023-03-09T00:54:46;50.63;;;28.02;;
22780;SDS011;11557;50.884;4.322;2023-03-09T00:57:11;49.03;;;27.00;;
22780;SDS011;11557;50.884;4.322;2023-03-09T00:59:37;53.33;;;28.50;;
22780;SDS011;11557;50.884;4.322;2023-03-09T01:02:03;49.58;;;27.83;;
22780;SDS011;11557;50.884;4.322;2023-03-09T01:04:29;53.40;;;28.58;;
22780;SDS011;11557;50.884;4.322;2023-03-09T01:06:54;53.55;;;29.02;;
22780;SDS011;11557;50.884;4.322;2023-03-09T01:09:20;46.95;;;27.10;;
22780;SDS011;11557;50.884;4.322;2023-03-09T01:11:46;56.72;;;29.73;;
22780;SDS011;11557;50.884;4.322;2023-03-09T01:14:12;58.05;;;31.30;;
22780;SDS011;11557;50.884;4.322;2023-03-09T01:16:38;57.05;;;30.70;;
22780;SDS011;11557;50.884;4.322;2023-03-09T01:19:03;61.50;;;32.88;;
22780;SDS011;11557;50.884;4.322;2023-03-09T01:21:29;64.47;;;33.15;;
22780;SDS011;11557;50.884;4.322;2023-03-09T01:23:55;62.15;;;32.50;;
22780;SDS011;11557;50.884;4.322;2023-03-09T01:26:20;61.08;;;31.27;;
22780;SDS011;11557;50.884;4.322;2023-03-09T01:28:46;66.55;;;32.60;;
22780;SDS011;11557;50.884;4.322;2023-03-09T01:31:13;60.47;;;31.98;;
22780;SDS011;11557;50.884;4.322;2023-03-09T01:33:40;65.80;;;34.33;;
22780;SDS011;11557;50.884;4.322;2023-03-09T01:36:07;70.15;;;35.17;;
22780;SDS011;11557;50.884;4.322;2023-03-09T01:38:36;67.40;;;32.50;;
22780;SDS011;11557;50.884;4.322;2023-03-09T01:41:01;77.18;;;34.60;;
22780;SDS011;11557;50.884;4.322;2023-03-09T01:55:39;74.53;;;37.03;;
22780;SDS011;11557;50.884;4.322;2023-03-09T01:57:34;84.60;;;37.42;;
22780;SDS011;11557;50.884;4.322;2023-03-09T02:00:14;84.43;;;37.45;;
22780;SDS011;11557;50.884;4.322;2023-03-09T02:02:53;81.50;;;37.38;;
22780;SDS011;11557;50.884;4.322;2023-03-09T02:05:26;85.78;;;38.25;;
22780;SDS011;11557;50.884;4.322;2023-03-09T02:08:01;89.43;;;38.17;;
22780;SDS011;11557;50.884;4.322;2023-03-09T02:10:32;87.45;;;38.22;;
22780;SDS011;11557;50.884;4.322;2023-03-09T02:13:02;79.55;;;37.15;;
22780;SDS011;11557;50.884;4.322;2023-03-09T02:15:32;71.53;;;34.65;;
22780;SDS011;11557;50.884;4.322;2023-03-09T02:17:57;72.47;;;34.25;;
22780;SDS011;11557;50.884;4.322;2023-03-09T02:23:02;75.90;;;35.10;;
22780;SDS011;11557;50.884;4.322;2023-03-09T02:28:05;75.63;;;34.50;;
22780;SDS011;11557;50.884;4.322;2023-03-09T02:30:32;73.47;;;34.95;;
22780;SDS011;11557;50.884;4.322;2023-03-09T02:33:02;62.95;;;31.13;;
22780;SDS011;11557;50.884;4.322;2023-03-09T02:35:29;64.63;;;30.98;;
22780;SDS011;11557;50.884;4.322;2023-03-09T02:37:54;60.20;;;30.63;;
22780;SDS011;11557;50.884;4.322;2023-03-09T02:42:48;55.20;;;26.75;;
22780;SDS011;11557;50.884;4.322;2023-03-09T02:45:17;54.10;;;27.63;;
22780;SDS011;11557;50.884;4.322;2023-03-09T02:47:44;56.60;;;28.48;;
22780;SDS011;11557;50.884;4.322;2023-03-09T02:50:11;54.10;;;27.35;;
22780;SDS011;11557;50.884;4.322;2023-03-09T02:52:37;52.55;;;27.98;;
22780;SDS011;11557;50.884;4.322;2023-03-09T02:55:03;51.33;;;26.52;;
22780;SDS011;11557;50.884;4.322;2023-03-09T02:57:30;51.45;;;27.55;;
22780;SDS011;11557;50.884;4.322;2023-03-09T02:59:56;56.90;;;27.95;;
22780;SDS011;11557;50.884;4.322;2023-03-09T03:02:21;63.47;;;31.05;;
22780;SDS011;11557;50.884;4.322;2023-03-09T03:04:47;63.83;;;30.42;;
22780;SDS011;11557;50.884;4.322;2023-03-09T03:07:13;63.60;;;30.80;;
22780;SDS011;11557;50.884;4.322;2023-03-09T03:09:38;65.63;;;31.85;;
22780;SDS011;11557;50.884;4.322;2023-03-09T03:12:04;68.72;;;31.85;;
22780;SDS011;11557;50.884;4.322;2023-03-09T03:14:30;66.28;;;33.20;;
22780;SDS011;11557;50.884;4.322;2023-03-09T03:16:56;72.43;;;34.38;;
22780;SDS011;11557;50.884;4.322;2023-03-09T03:19:22;66.22;;;30.90;;
22780;SDS011;11557;50.884;4.322;2023-03-09T03:21:48;62.28;;;31.02;;
22780;SDS011;11557;50.884;4.322;2023-03-09T03:24:14;66.03;;;33.30;;
22780;SDS011;11557;50.884;4.322;2023-03-09T03:26:40;70.68;;;32.58;;
22780;SDS011;11557;50.884;4.322;2023-03-09T03:29:06;65.03;;;32.50;;
22780;SDS011;11557;50.884;4.322;2023-03-09T03:31:33;70.60;;;33.15;;
22780;SDS011;11557;50.884;4.322;2023-03-09T03:33:59;57.45;;;30.45;;
22780;SDS011;11557;50.884;4.322;2023-03-09T03:36:24;59.63;;;29.52;;
22780;SDS011;11557;50.884;4.322;2023-03-09T03:38:50;63.33;;;30.08;;
22780;SDS011;11557;50.884;4.322;2023-03-09T03:41:16;62.78;;;29.58;;
22780;SDS011;11557;50.884;4.322;2023-03-09T03:43:42;66.80;;;31.38;;
22780;SDS011;11557;50.884;4.322;2023-03-09T03:46:08;65.60;;;30.55;;
22780;SDS011;11557;50.884;4.322;2023-03-09T03:48:33;75.88;;;34.08;;
22780;SDS011;11557;50.884;4.322;2023-03-09T03:50:59;77.15;;;35.95;;
22780;SDS011;11557;50.884;4.322;2023-03-09T03:53:25;77.07;;;34.55;;
22780;SDS011;11557;50.884;4.322;2023-03-09T03:55:51;78.35;;;36.15;;
22780;SDS011;11557;50.884;4.322;2023-03-09T03:58:17;81.63;;;33.55;;
22780;SDS011;11557;50.884;4.322;2023-03-09T04:00:42;75.05;;;33.65;;
22780;SDS011;11557;50.884;4.322;2023-03-09T04:03:08;87.90;;;37.60;;
22780;SDS011;11557;50.884;4.322;2023-03-09T04:05:34;76.30;;;36.15;;
22780;SDS011;11557;50.884;4.322;2023-03-09T04:08:00;70.93;;;34.42;;
22780;SDS011;11557;50.884;4.322;2023-03-09T04:10:25;71.63;;;33.85;;
22780;SDS011;11557;50.884;4.322;2023-03-09T04:12:51;66.57;;;33.03;;
22780;SDS011;11557;50.884;4.322;2023-03-09T04:15:17;73.20;;;32.97;;
22780;SDS011;11557;50.884;4.322;2023-03-09T04:17:43;67.32;;;33.50;;
22780;SDS011;11557;50.884;4.322;2023-03-09T04:20:09;66.35;;;33.13;;
22780;SDS011;11557;50.884;4.322;2023-03-09T04:22:35;69.22;;;34.75;;
22780;SDS011;11557;50.884;4.322;2023-03-09T04:25:01;66.75;;;34.38;;
22780;SDS011;11557;50.884;4.322;2023-03-09T04:27:27;56.97;;;30.27;;
22780;SDS011;11557;50.884;4.322;2023-03-09T04:29:52;64.75;;;31.75;;
22780;SDS011;11557;50.884;4.322;2023-03-09T04:32:18;70.75;;;30.83;;
22780;SDS011;11557;50.884;4.322;2023-03-09T04:34:45;61.33;;;30.92;;
22780;SDS011;11557;50.884;4.322;2023-03-09T04:37:10;64.05;;;32.03;;
22780;SDS011;11557;50.884;4.322;2023-03-09T04:39:36;65.15;;;33.30;;
22780;SDS011;11557;50.884;4.322;2023-03-09T04:42:02;59.25;;;32.22;;
22780;SDS011;11557;50.884;4.322;2023-03-09T04:44:28;55.80;;;29.77;;
22780;SDS011;11557;50.884;4.322;2023-03-09T04:46:54;54.33;;;28.80;;
22780;SDS011;11557;50.884;4.322;2023-03-09T04:49:19;45.47;;;26.42;;
22780;SDS011;11557;50.884;4.322;2023-03-09T04:51:45;44.42;;;24.98;;
22780;SDS011;11557;50.884;4.322;2023-03-09T04:54:12;46.67;;;25.00;;
22780;SDS011;11557;50.884;4.322;2023-03-09T04:56:37;38.25;;;22.92;;
22780;SDS011;11557;50.884;4.322;2023-03-09T04:59:03;39.25;;;22.33;;
22780;SDS011;11557;50.884;4.322;2023-03-09T05:01:29;40.95;;;22.35;;
22780;SDS011;11557;50.884;4.322;2023-03-09T05:03:54;37.75;;;21.55;;
22780;SDS011;11557;50.884;4.322;2023-03-09T05:06:20;39.88;;;21.15;;
22780;SDS011;11557;50.884;4.322;2023-03-09T05:08:46;40.28;;;21.55;;
22780;SDS011;11557;50.884;4.322;2023-03-09T05:11:11;35.33;;;20.73;;
22780;SDS011;11557;50.884;4.322;2023-03-09T05:13:37;37.55;;;22.40;;
22780;SDS011;11557;50.884;4.322;2023-03-09T05:16:03;38.63;;;21.52;;
22780;SDS011;11557;50.884;4.322;2023-03-09T05:18:33;38.30;;;21.15;;
22780;SDS011;11557;50.884;4.322;2023-03-09T05:21:03;34.40;;;21.50;;
22780;SDS011;11557;50.884;4.322;2023-03-09T05:23:33;39.20;;;22.02;;
22780;SDS011;11557;50.884;4.322;2023-03-09T05:26:01;41.00;;;22.73;;
22780;SDS011;11557;50.884;4.322;2023-03-09T05:28:34;38.30;;;22.85;;
22780;SDS011;11557;50.884;4.322;2023-03-09T05:31:01;38.92;;;23.83;;
22780;SDS011;11557;50.884;4.322;2023-03-09T05:33:28;44.78;;;24.15;;
22780;SDS011;11557;50.884;4.322;2023-03-09T05:35:54;42.45;;;23.40;;
22780;SDS011;11557;50.884;4.322;2023-03-09T05:38:19;45.03;;;23.95;;
22780;SDS011;11557;50.884;4.322;2023-03-09T05:40:45;50.40;;;24.02;;
22780;SDS011;11557;50.884;4.322;2023-03-09T05:43:11;48.72;;;25.77;;
22780;SDS011;11557;50.884;4.322;2023-03-09T05:45:37;48.55;;;25.45;;
22780;SDS011;11557;50.884;4.322;2023-03-09T05:48:02;45.17;;;24.65;;
22780;SDS011;11557;50.884;4.322;2023-03-09T05:50:28;45.78;;;23.23;;
22780;SDS011;11557;50.884;4.322;2023-03-09T05:52:54;40.65;;;22.45;;
22780;SDS011;11557;50.884;4.322;2023-03-09T05:55:20;39.63;;;21.88;;
22780;SDS011;11557;50.884;4.322;2023-03-09T05:57:46;42.10;;;22.27;;
22780;SDS011;11557;50.884;4.322;2023-03-09T06:00:12;37.47;;;21.70;;
22780;SDS011;11557;50.884;4.322;2023-03-09T06:02:38;41.03;;;21.15;;
22780;SDS011;11557;50.884;4.322;2023-03-09T06:05:03;39.17;;;22.08;;
22780;SDS011;11557;50.884;4.322;2023-03-09T06:07:29;37.90;;;21.67;;
22780;SDS011;11557;50.884;4.322;2023-03-09T06:09:55;43.47;;;22.27;;
22780;SDS011;11557;50.884;4.322;2023-03-09T06:12:21;38.85;;;21.63;;
22780;SDS011;11557;50.884;4.322;2023-03-09T06:14:47;43.58;;;22.85;;
22780;SDS011;11557;50.884;4.322;2023-03-09T06:17:15;42.15;;;22.58;;
22780;SDS011;11557;50.884;4.322;2023-03-09T06:19:41;42.47;;;22.88;;
22780;SDS011;11557;50.884;4.322;2023-03-09T06:22:06;41.13;;;23.30;;
22780;SDS011;11557;50.884;4.322;2023-03-09T06:24:32;47.75;;;23.63;;
22780;SDS011;11557;50.884;4.322;2023-03-09T06:26:58;42.47;;;24.67;;
22780;SDS011;11557;50.884;4.322;2023-03-09T06:29:25;48.22;;;24.38;;
22780;SDS011;11557;50.884;4.322;2023-03-09T06:31:51;46.00;;;25.27;;
22780;SDS011;11557;50.884;4.322;2023-03-09T06:34:17;48.05;;;25.95;;
22780;SDS011;11557;50.884;4.322;2023-03-09T06:36:42;50.97;;;25.90;;
22780;SDS011;11557;50.884;4.322;2023-03-09T06:39:09;53.35;;;26.40;;
22780;SDS011;11557;50.884;4.322;2023-03-09T06:41:35;48.17;;;26.70;;
22780;SDS011;11557;50.884;4.322;2023-03-09T06:44:01;48.63;;;25.65;;
22780;SDS011;11557;50.884;4.322;2023-03-09T06:46:27;50.83;;;27.48;;
22780;SDS011;11557;50.884;4.322;2023-03-09T06:48:53;50.63;;;25.88;;
22780;SDS011;11557;50.884;4.322;2023-03-09T06:51:19;51.95;;;24.42;;
22780;SDS011;11557;50.884;4.322;2023-03-09T06:53:45;50.50;;;24.60;;
22780;SDS011;11557;50.884;4.322;2023-03-09T06:56:11;52.20;;;25.30;;
22780;SDS011;11557;50.884;4.322;2023-03-09T06:58:37;47.45;;;25.58;;
22780;SDS011;11557;50.884;4.322;2023-03-09T07:01:06;50.13;;;25.33;;
22780;SDS011;11557;50.884;4.322;2023-03-09T07:03:34;45.78;;;25.88;;
22780;SDS011;11557;50.884;4.322;2023-03-09T07:06:00;52.70;;;26.35;;
22780;SDS011;11557;50.884;4.322;2023-03-09T07:08:27;54.63;;;27.80;;
22780;SDS011;11557;50.884;4.322;2023-03-09T07:10:52;44.15;;;25.58;;
22780;SDS011;11557;50.884;4.322;2023-03-09T07:13:18;50.60;;;26.98;;
22780;SDS011;11557;50.884;4.322;2023-03-09T07:15:44;52.88;;;26.75;;
22780;SDS011;11557;50.884;4.322;2023-03-09T07:18:10;53.45;;;27.02;;
22780;SDS011;11557;50.884;4.322;2023-03-09T07:20:39;56.13;;;27.17;;
22780;SDS011;11557;50.884;4.322;2023-03-09T07:23:06;55.72;;;27.52;;
22780;SDS011;11557;50.884;4.322;2023-03-09T07:25:33;53.83;;;27.98;;
22780;SDS011;11557;50.884;4.322;2023-03-09T07:28:01;59.90;;;28.88;;
22780;SDS011;11557;50.884;4.322;2023-03-09T07:30:27;52.60;;;28.02;;
22780;SDS011;11557;50.884;4.322;2023-03-09T07:32:53;58.85;;;27.13;;
22780;SDS011;11557;50.884;4.322;2023-03-09T07:35:22;50.05;;;25.90;;
22780;SDS011;11557;50.884;4.322;2023-03-09T07:37:48;59.70;;;27.85;;
22780;SDS011;11557;50.884;4.322;2023-03-09T07:40:14;60.50;;;27.50;;
22780;SDS011;11557;50.884;4.322;2023-03-09T07:42:39;67.90;;;27.95;;
22780;SDS011;11557;50.884;4.322;2023-03-09T07:45:06;55.78;;;27.83;;
22780;SDS011;11557;50.884;4.322;2023-03-09T07:47:32;54.70;;;27.65;;
22780;SDS011;11557;50.884;4.322;2023-03-09T07:49:58;54.13;;;27.02;;
22780;SDS011;11557;50.884;4.322;2023-03-09T07:52:24;49.97;;;26.88;;
22780;SDS011;11557;50.884;4.322;2023-03-09T07:54:56;52.92;;;28.38;;
22780;SDS011;11557;50.884;4.322;2023-03-09T07:57:22;58.03;;;29.65;;
22780;SDS011;11557;50.884;4.322;2023-03-09T07:59:52;57.30;;;28.52;;
22780;SDS011;11557;50.884;4.322;2023-03-09T08:02:21;60.15;;;27.60;;
22780;SDS011;11557;50.884;4.322;2023-03-09T08:04:48;58.80;;;27.88;;
22780;SDS011;11557;50.884;4.322;2023-03-09T08:07:14;62.75;;;27.33;;
22780;SDS011;11557;50.884;4.322;2023-03-09T08:09:40;55.00;;;26.35;;
22780;SDS011;11557;50.884;4.322;2023-03-09T08:12:05;59.38;;;28.23;;
22780;SDS011;11557;50.884;4.322;2023-03-09T08:14:31;56.10;;;26.83;;
22780;SDS011;11557;50.884;4.322;2023-03-09T08:16:57;52.53;;;26.15;;
22780;SDS011;11557;50.884;4.322;2023-03-09T08:19:23;49.83;;;25.20;;
22780;SDS011;11557;50.884;4.322;2023-03-09T08:21:48;46.47;;;24.70;;
22780;SDS011;11557;50.884;4.322;2023-03-09T08:24:15;52.05;;;24.35;;
22780;SDS011;11557;50.884;4.322;2023-03-09T08:26:41;52.70;;;24.83;;
22780;SDS011;11557;50.884;4.322;2023-03-09T08:29:07;52.42;;;24.73;;
22780;SDS011;11557;50.884;4.322;2023-03-09T08:31:34;59.63;;;27.05;;
22780;SDS011;11557;50.884;4.322;2023-03-09T08:34:00;61.65;;;27.77;;
22780;SDS011;11557;50.884;4.322;2023-03-09T08:36:27;55.67;;;26.48;;
22780;SDS011;11557;50.884;4.322;2023-03-09T08:38:52;57.13;;;27.83;;
22780;SDS011;11557;50.884;4.322;2023-03-09T08:41:18;51.65;;;27.13;;
22780;SDS011;11557;50.884;4.322;2023-03-09T08:43:45;59.10;;;28.70;;
22780;SDS011;11557;50.884;4.322;2023-03-09T08:46:11;59.00;;;30.10;;
22780;SDS011;11557;50.884;4.322;2023-03-09T08:48:37;53.70;;;28.95;;
22780;SDS011;11557;50.884;4.322;2023-03-09T08:51:04;56.80;;;29.15;;
22780;SDS011;11557;50.884;4.322;2023-03-09T08:53:34;59.45;;;30.35;;
22780;SDS011;11557;50.884;4.322;2023-03-09T08:56:02;57.45;;;30.10;;
22780;SDS011;11557;50.884;4.322;2023-03-09T08:58:33;58.25;;;28.27;;
22780;SDS011;11557;50.884;4.322;2023-03-09T09:00:59;56.30;;;30.23;;
22780;SDS011;11557;50.884;4.322;2023-03-09T09:03:27;58.63;;;29.38;;
22780;SDS011;11557;50.884;4.322;2023-03-09T09:05:54;55.65;;;29.08;;
22780;SDS011;11557;50.884;4.322;2023-03-09T09:08:20;58.13;;;28.45;;
22780;SDS011;11557;50.884;4.322;2023-03-09T09:10:45;51.92;;;28.00;;
22780;SDS011;11557;50.884;4.322;2023-03-09T09:13:11;56.28;;;28.60;;
22780;SDS011;11557;50.884;4.322;2023-03-09T09:15:37;52.35;;;26.98;;
22780;SDS011;11557;50.884;4.322;2023-03-09T09:18:05;50.58;;;27.65;;
22780;SDS011;11557;50.884;4.322;2023-03-09T09:20:31;52.85;;;27.75;;
22780;SDS011;11557;50.884;4.322;2023-03-09T09:22:56;60.40;;;28.77;;
22780;SDS011;11557;50.884;4.322;2023-03-09T09:25:24;52.97;;;28.60;;
22780;SDS011;11557;50.884;4.322;2023-03-09T09:27:50;54.80;;;27.33;;
22780;SDS011;11557;50.884;4.322;2023-03-09T09:30:17;51.55;;;28.15;;
22780;SDS011;11557;50.884;4.322;2023-03-09T09:32:44;51.72;;;27.48;;
22780;SDS011;11557;50.884;4.322;2023-03-09T09:35:10;52.63;;;29.17;;
22780;SDS011;11557;50.884;4.322;2023-03-09T09:37:37;52.63;;;27.85;;
22780;SDS011;11557;50.884;4.322;2023-03-09T09:40:03;49.55;;;26.73;;
22780;SDS011;11557;50.884;4.322;2023-03-09T09:42:32;52.00;;;26.65;;
22780;SDS011;11557;50.884;4.322;2023-03-09T09:45:02;50.40;;;26.30;;
22780;SDS011;11557;50.884;4.322;2023-03-09T09:47:31;44.75;;;24.80;;
22780;SDS011;11557;50.884;4.322;2023-03-09T09:49:59;42.80;;;23.05;;
22780;SDS011;11557;50.884;4.322;2023-03-09T09:52:33;43.03;;;23.75;;
22780;SDS011;11557;50.884;4.322;2023-03-09T10:00:05;46.20;;;24.83;;
22780;SDS011;11557;50.884;4.322;2023-03-09T10:05:36;48.95;;;25.67;;
22780;SDS011;11557;50.884;4.322;2023-03-09T10:11:16;40.58;;;23.95;;
22780;SDS011;11557;50.884;4.322;2023-03-09T10:16:37;41.05;;;24.15;;
22780;SDS011;11557;50.884;4.322;2023-03-09T10:19:07;42.03;;;24.23;;
22780;SDS011;11557;50.884;4.322;2023-03-09T10:21:46;39.25;;;24.52;;
22780;SDS011;11557;50.884;4.322;2023-03-09T10:24:17;37.85;;;23.23;;
22780;SDS011;11557;50.884;4.322;2023-03-09T10:26:51;42.45;;;25.38;;
22780;SDS011;11557;50.884;4.322;2023-03-09T10:32:24;42.03;;;25.52;;
22780;SDS011;11557;50.884;4.322;2023-03-09T10:38:13;43.95;;;24.45;;
22780;SDS011;11557;50.884;4.322;2023-03-09T10:40:42;43.70;;;23.87;;
22780;SDS011;11557;50.884;4.322;2023-03-09T10:43:09;46.45;;;25.60;;
22780;SDS011;11557;50.884;4.322;2023-03-09T10:46:04;43.42;;;26.27;;
22780;SDS011;11557;50.884;4.322;2023-03-09T10:48:37;46.28;;;27.45;;
22780;SDS011;11557;50.884;4.322;2023-03-09T10:51:04;47.80;;;26.23;;
22780;SDS011;11557;50.884;4.322;2023-03-09T10:53:37;41.58;;;25.00;;
22780;SDS011;11557;50.884;4.322;2023-03-09T10:56:17;49.05;;;26.35;;
22780;SDS011;11557;50.884;4.322;2023-03-09T11:01:35;37.65;;;22.42;;
22780;SDS011;11557;50.884;4.322;2023-03-09T11:04:28;34.92;;;23.50;;
22780;SDS011;11557;50.884;4.322;2023-03-09T11:14:34;42.83;;;25.40;;
22780;SDS011;11557;50.884;4.322;2023-03-09T11:17:23;44.85;;;25.55;;
22780;SDS011;11557;50.884;4.322;2023-03-09T11:22:36;39.95;;;24.83;;
22780;SDS011;11557;50.884;4.322;2023-03-09T11:25:12;42.75;;;25.73;;
22780;SDS011;11557;50.884;4.322;2023-03-09T11:27:43;48.13;;;25.88;;
22780;SDS011;11557;50.884;4.322;2023-03-09T11:30:16;49.97;;;27.17;;
22780;SDS011;11557;50.884;4.322;2023-03-09T11:32:44;44.63;;;27.67;;
22780;SDS011;11557;50.884;4.322;2023-03-09T11:35:14;47.40;;;26.80;;
22780;SDS011;11557;50.884;4.322;2023-03-09T11:37:49;42.47;;;26.33;;
22780;SDS011;11557;50.884;4.322;2023-03-09T11:40:24;47.67;;;26.63;;
22780;SDS011;11557;50.884;4.322;2023-03-09T11:42:58;45.30;;;27.10;;
22780;SDS011;11557;50.884;4.322;2023-03-09T11:45:34;48.30;;;27.30;;
22780;SDS011;11557;50.884;4.322;2023-03-09T11:48:14;47.97;;;27.17;;
22780;SDS011;11557;50.884;4.322;2023-03-09T11:51:28;51.47;;;28.98;;
22780;SDS011;11557;50.884;4.322;2023-03-09T11:53:39;52.65;;;28.85;;
22780;SDS011;11557;50.884;4.322;2023-03-09T11:56:15;49.42;;;29.10;;
22780;SDS011;11557;50.884;4.322;2023-03-09T11:58:52;51.78;;;30.67;;
22780;SDS011;11557;50.884;4.322;2023-03-09T12:01:29;51.58;;;29.40;;
22780;SDS011;11557;50.884;4.322;2023-03-09T12:04:08;52.25;;;30.98;;
22780;SDS011;11557;50.884;4.322;2023-03-09T12:09:27;50.70;;;29.52;;
22780;SDS011;11557;50.884;4.322;2023-03-09T12:14:51;57.67;;;29.58;;
22780;SDS011;11557;50.884;4.322;2023-03-09T12:17:23;55.67;;;29.00;;
22780;SDS011;11557;50.884;4.322;2023-03-09T12:19:53;52.78;;;26.55;;
22780;SDS011;11557;50.884;4.322;2023-03-09T12:24:53;43.33;;;13.27;;
22780;SDS011;11557;50.884;4.322;2023-03-09T12:27:25;32.10;;;12.20;;
22780;SDS011;11557;50.884;4.322;2023-03-09T12:30:08;33.55;;;10.85;;
22780;SDS011;11557;50.884;4.322;2023-03-09T12:32:55;27.58;;;8.75;;
22780;SDS011;11557;50.884;4.322;2023-03-09T12:42:51;24.73;;;5.28;;
22780;SDS011;11557;50.884;4.322;2023-03-09T12:45:36;25.38;;;6.05;;
22780;SDS011;11557;50.884;4.322;2023-03-09T12:48:03;30.15;;;5.82;;
22780;SDS011;11557;50.884;4.322;2023-03-09T12:53:33;26.33;;;6.20;;
22780;SDS011;11557;50.884;4.322;2023-03-09T12:56:26;27.80;;;5.05;;
22780;SDS011;11557;50.884;4.322;2023-03-09T12:58:54;23.20;;;5.13;;
22780;SDS011;11557;50.884;4.322;2023-03-09T13:03:53;23.35;;;4.90;;
22780;SDS011;11557;50.884;4.322;2023-03-09T13:11:45;30.67;;;5.40;;
22780;SDS011;11557;50.884;4.322;2023-03-09T13:26:45;30.85;;;5.57;;
22780;SDS011;11557;50.884;4.322;2023-03-09T13:29:16;28.10;;;4.75;;
22780;SDS011;11557;50.884;4.322;2023-03-09T13:31:46;25.90;;;5.35;;
22780;SDS011;11557;50.884;4.322;2023-03-09T13:34:24;28.23;;;5.38;;
22780;SDS011;11557;50.884;4.322;2023-03-09T13:36:52;25.17;;;5.00;;
22780;SDS011;11557;50.884;4.322;2023-03-09T13:39:22;28.88;;;4.53;;
22780;SDS011;11557;50.884;4.322;2023-03-09T13:41:50;27.85;;;4.63;;
22780;SDS011;11557;50.884;4.322;2023-03-09T13:44:20;25.65;;;4.10;;
22780;SDS011;11557;50.884;4.322;2023-03-09T13:46:51;31.73;;;8.95;;
22780;SDS011;11557;50.884;4.322;2023-03-09T13:54:22;24.98;;;5.05;;
22780;SDS011;11557;50.884;4.322;2023-03-09T13:56:58;26.38;;;4.68;;
22780;SDS011;11557;50.884;4.322;2023-03-09T13:59:30;28.65;;;4.75;;
22780;SDS011;11557;50.884;4.322;2023-03-09T14:02:17;26.60;;;4.03;;
22780;SDS011;11557;50.884;4.322;2023-03-09T14:04:43;25.85;;;3.72;;
22780;SDS011;11557;50.884;4.322;2023-03-09T14:07:17;24.75;;;3.90;;
22780;SDS011;11557;50.884;4.322;2023-03-09T14:09:52;30.30;;;4.22;;
22780;SDS011;11557;50.884;4.322;2023-03-09T14:12:28;19.08;;;3.70;;
22780;SDS011;11557;50.884;4.322;2023-03-09T14:14:54;30.17;;;5.75;;
22780;SDS011;11557;50.884;4.322;2023-03-09T14:17:21;23.48;;;3.35;;
22780;SDS011;11557;50.884;4.322;2023-03-09T14:19:50;22.10;;;3.78;;
22780;SDS011;11557;50.884;4.322;2023-03-09T14:22:18;26.73;;;4.38;;
22780;SDS011;11557;50.884;4.322;2023-03-09T14:24:46;24.05;;;4.10;;
22780;SDS011;11557;50.884;4.322;2023-03-09T14:29:55;24.23;;;3.88;;
22780;SDS011;11557;50.884;4.322;2023-03-09T14:34:49;22.38;;;4.35;;
22780;SDS011;11557;50.884;4.322;2023-03-09T14:37:24;22.77;;;4.63;;
22780;SDS011;11557;50.884;4.322;2023-03-09T14:39:55;24.13;;;5.40;;
22780;SDS011;11557;50.884;4.322;2023-03-09T14:42:30;25.42;;;4.20;;
22780;SDS011;11557;50.884;4.322;2023-03-09T14:45:03;18.13;;;4.15;;
22780;SDS011;11557;50.884;4.322;2023-03-09T14:47:34;25.60;;;4.53;;
22780;SDS011;11557;50.884;4.322;2023-03-09T14:50:00;21.67;;;4.10;;
22780;SDS011;11557;50.884;4.322;2023-03-09T14:52:27;22.05;;;4.25;;
22780;SDS011;11557;50.884;4.322;2023-03-09T14:54:53;19.05;;;3.53;;
22780;SDS011;11557;50.884;4.322;2023-03-09T14:57:19;21.90;;;3.88;;
22780;SDS011;11557;50.884;4.322;2023-03-09T14:59:45;16.38;;;3.63;;
22780;SDS011;11557;50.884;4.322;2023-03-09T15:02:12;24.52;;;5.07;;
22780;SDS011;11557;50.884;4.322;2023-03-09T15:04:40;27.73;;;4.72;;
22780;SDS011;11557;50.884;4.322;2023-03-09T15:07:12;24.85;;;4.35;;
22780;SDS011;11557;50.884;4.322;2023-03-09T15:09:39;21.05;;;3.72;;
22780;SDS011;11557;50.884;4.322;2023-03-09T15:12:16;20.55;;;4.43;;
22780;SDS011;11557;50.884;4.322;2023-03-09T15:14:44;24.77;;;4.95;;
22780;SDS011;11557;50.884;4.322;2023-03-09T15:17:16;23.80;;;4.10;;
22780;SDS011;11557;50.884;4.322;2023-03-09T15:19:43;22.77;;;4.75;;
22780;SDS011;11557;50.884;4.322;2023-03-09T15:22:10;26.85;;;4.78;;
22780;SDS011;11557;50.884;4.322;2023-03-09T15:24:38;25.27;;;5.32;;
22780;SDS011;11557;50.884;4.322;2023-03-09T15:27:04;29.25;;;4.70;;
22780;SDS011;11557;50.884;4.322;2023-03-09T15:29:30;32.38;;;4.95;;
22780;SDS011;11557;50.884;4.322;2023-03-09T15:31:56;24.13;;;4.53;;
22780;SDS011;11557;50.884;4.322;2023-03-09T15:34:24;23.58;;;3.95;;
22780;SDS011;11557;50.884;4.322;2023-03-09T15:36:50;33.45;;;5.03;;
22780;SDS011;11557;50.884;4.322;2023-03-09T15:39:16;26.27;;;5.20;;
22780;SDS011;11557;50.884;4.322;2023-03-09T15:41:41;26.70;;;4.82;;
22780;SDS011;11557;50.884;4.322;2023-03-09T15:44:07;23.75;;;3.97;;
22780;SDS011;11557;50.884;4.322;2023-03-09T15:46:33;34.00;;;5.57;;
22780;SDS011;11557;50.884;4.322;2023-03-09T15:48:58;29.10;;;4.57;;
22780;SDS011;11557;50.884;4.322;2023-03-09T15:51:24;23.70;;;4.30;;
22780;SDS011;11557;50.884;4.322;2023-03-09T15:53:50;23.75;;;4.45;;
22780;SDS011;11557;50.884;4.322;2023-03-09T15:56:16;21.02;;;4.90;;
22780;SDS011;11557;50.884;4.322;2023-03-09T15:58:43;26.98;;;4.88;;
22780;SDS011;11557;50.884;4.322;2023-03-09T16:01:14;24.50;;;3.97;;
22780;SDS011;11557;50.884;4.322;2023-03-09T16:03:43;26.80;;;4.03;;
22780;SDS011;11557;50.884;4.322;2023-03-09T16:06:10;21.80;;;4.43;;
22780;SDS011;11557;50.884;4.322;2023-03-09T16:08:36;26.98;;;4.63;;
22780;SDS011;11557;50.884;4.322;2023-03-09T16:11:02;25.23;;;5.38;;